createdAt,value
2023-05-06T00:00:42.862Z,84.71
2023-05-06T00:10:46.673Z,81.50
2023-05-06T00:20:49.055Z,79.97
2023-05-06T00:30:52.873Z,79.67
2023-05-06T00:40:55.261Z,79.71
2023-05-06T00:50:59.015Z,80.22
2023-05-06T01:01:01.746Z,79.32
2023-05-06T01:11:08.510Z,79.43
2023-05-06T01:21:12.585Z,80.46
2023-05-06T01:31:21.018Z,81.69
2023-05-06T01:41:24.255Z,83.44
2023-05-06T01:51:28.107Z,83.99
2023-05-06T02:01:30.533Z,84.31
2023-05-06T02:11:34.275Z,85.06
2023-05-06T02:21:36.807Z,86.63
2023-05-06T02:31:40.624Z,86.29
2023-05-06T02:41:43.036Z,85.94
2023-05-06T02:51:47.103Z,86.00
2023-05-06T03:01:49.496Z,84.70
2023-05-06T03:11:53.230Z,84.52
2023-05-06T03:21:55.606Z,84.04
2023-05-06T03:31:59.458Z,83.57
2023-05-06T03:42:02.283Z,83.54
2023-05-06T03:52:06.266Z,85.70
2023-05-06T04:02:08.679Z,87.91
2023-05-06T04:12:12.501Z,90.81
2023-05-06T04:22:15.004Z,91.66
2023-05-06T04:32:18.928Z,93.24
2023-05-06T04:42:21.334Z,93.10
2023-05-06T04:52:25.057Z,88.14
2023-05-06T05:02:27.935Z,87.98
2023-05-06T05:12:32.048Z,86.11
2023-05-06T05:22:34.479Z,87.93
2023-05-06T05:32:38.240Z,87.50
2023-05-06T05:42:40.852Z,86.71
2023-05-06T05:52:44.576Z,87.28
2023-05-06T06:02:47.053Z,87.14
2023-05-06T06:12:50.858Z,87.75
2023-05-06T06:22:53.249Z,87.08
2023-05-06T06:32:58.771Z,87.87
2023-05-06T06:43:01.271Z,88.10
2023-05-06T06:53:06.396Z,89.69
2023-05-06T07:03:09.081Z,87.93
2023-05-06T07:13:12.850Z,89.20
2023-05-06T07:23:15.468Z,88.87
2023-05-06T07:33:19.311Z,89.46
2023-05-06T07:43:22.910Z,86.69
2023-05-06T07:53:27.018Z,81.89
2023-05-06T08:03:30.922Z,82.95
2023-05-06T08:13:34.768Z,84.65
2023-05-06T08:23:37.156Z,85.77
2023-05-06T08:33:40.850Z,84.62
2023-05-06T08:43:44.078Z,80.95
2023-05-06T08:53:49.381Z,77.61
2023-05-06T09:03:52.335Z,75.63
2023-05-06T09:14:09.112Z,72.17
2023-05-06T09:24:12.390Z,73.75
2023-05-06T09:34:17.481Z,68.86
2023-05-06T09:44:20.154Z,65.29
2023-05-06T09:54:24.705Z,64.75
2023-05-06T10:04:27.976Z,69.27
2023-05-06T10:14:31.953Z,69.56
2023-05-06T10:24:37.820Z,68.40
2023-05-06T10:34:45.318Z,66.59
2023-05-06T10:44:57.142Z,65.70
2023-05-06T10:55:00.873Z,63.15
2023-05-06T11:05:03.437Z,59.50
2023-05-06T11:15:20.818Z,56.26
2023-05-06T11:25:43.557Z,55.73
2023-05-06T11:35:46.445Z,50.64
2023-05-06T11:45:50.650Z,49.18
2023-05-06T11:55:54.008Z,54.02
2023-05-06T12:05:58.246Z,57.13
2023-05-06T12:16:01.416Z,52.19
2023-05-06T12:26:06.566Z,51.61
2023-05-06T12:36:09.172Z,49.31
2023-05-06T12:46:13.392Z,52.18
2023-05-06T12:56:15.815Z,49.13
2023-05-06T13:06:19.814Z,42.50
2023-05-06T13:16:22.557Z,47.07
2023-05-06T13:26:26.735Z,43.85
2023-05-06T13:36:29.172Z,45.60
2023-05-06T13:46:32.933Z,47.03
2023-05-06T13:56:35.710Z,47.28
2023-05-06T14:06:39.697Z,42.81
2023-05-06T14:16:42.208Z,43.87
2023-05-06T14:26:46.098Z,42.60
2023-05-06T14:36:48.527Z,40.80
2023-05-06T14:46:52.263Z,41.71
2023-05-06T14:56:54.662Z,46.09
2023-05-06T15:06:58.475Z,43.50
2023-05-06T15:17:00.905Z,44.17
2023-05-06T15:27:04.687Z,43.19
2023-05-06T15:37:08.072Z,42.30
2023-05-06T15:47:11.831Z,43.81
2023-05-06T15:57:14.829Z,46.23
2023-05-06T16:07:18.850Z,45.24
2023-05-06T16:17:21.239Z,45.20
2023-05-06T16:27:27.414Z,46.86
2023-05-06T16:37:29.807Z,47.48
2023-05-06T16:47:33.723Z,45.65
2023-05-06T16:57:36.395Z,47.12
2023-05-06T17:07:40.170Z,47.77
2023-05-06T17:17:42.586Z,47.73
2023-05-06T17:27:46.576Z,48.24
2023-05-06T17:37:49.009Z,48.55
2023-05-06T17:47:52.835Z,49.85
2023-05-06T17:57:55.228Z,49.86
2023-05-06T18:07:59.350Z,50.17
2023-05-06T18:18:01.831Z,51.97
2023-05-06T18:28:05.785Z,51.73
2023-05-06T18:38:08.418Z,53.01
2023-05-06T18:48:12.220Z,53.74
2023-05-06T18:58:16.186Z,53.48
2023-05-06T19:08:19.977Z,52.69
2023-05-06T19:18:22.495Z,52.89
2023-05-06T19:28:26.244Z,52.00
2023-05-06T19:38:28.870Z,54.74
2023-05-06T19:48:34.834Z,55.52
2023-05-06T19:58:38.229Z,56.75
2023-05-06T20:08:41.938Z,56.95
2023-05-06T20:18:44.367Z,56.24
2023-05-06T20:28:48.109Z,57.59
2023-05-06T20:38:51.417Z,56.79
2023-05-06T20:48:55.142Z,58.09
2023-05-06T20:58:57.574Z,58.46
2023-05-06T21:09:01.304Z,59.30
2023-05-06T21:19:05.591Z,57.69
2023-05-06T21:29:09.360Z,60.41
2023-05-06T21:39:12.754Z,59.48
2023-05-06T21:49:16.588Z,60.76
2023-05-06T21:59:19.631Z,60.55
2023-05-06T22:09:23.552Z,60.85
2023-05-06T22:19:26.532Z,61.88
2023-05-06T22:29:30.343Z,61.61
2023-05-06T22:39:32.792Z,62.32
2023-05-06T22:49:36.548Z,61.50
2023-05-06T22:59:39.013Z,62.64
2023-05-06T23:09:42.829Z,63.44
2023-05-06T23:19:45.953Z,62.81
2023-05-06T23:29:49.944Z,63.88
2023-05-06T23:39:52.999Z,64.39
2023-05-06T23:49:57.765Z,64.44
